createdAt,value
2022-11-21T00:00:54.716Z,0.90
2022-11-21T00:03:22.203Z,1.10
2022-11-21T00:05:49.913Z,0.90
2022-11-21T00:08:19.761Z,1.08
2022-11-21T00:10:46.979Z,1.08
2022-11-21T00:13:16.713Z,1.35
2022-11-21T00:15:43.982Z,1.35
2022-11-21T00:18:14.313Z,1.45
2022-11-21T00:20:42.423Z,1.23
2022-11-21T00:23:10.024Z,1.10
2022-11-21T00:25:37.881Z,0.93
2022-11-21T00:28:05.524Z,1.25
2022-11-21T00:30:32.371Z,0.90
2022-11-21T00:32:59.451Z,0.90
2022-11-21T00:35:26.502Z,1.30
2022-11-21T00:37:53.344Z,1.00
2022-11-21T00:40:20.301Z,1.10
2022-11-21T00:42:47.093Z,1.20
2022-11-21T00:45:13.920Z,1.30
2022-11-21T00:47:40.691Z,1.17
2022-11-21T00:50:07.704Z,1.10
2022-11-21T00:52:34.475Z,1.10
2022-11-21T00:55:01.297Z,0.90
2022-11-21T00:57:28.092Z,1.00
2022-11-21T00:59:54.921Z,1.15
2022-11-21T01:02:21.982Z,1.35
2022-11-21T01:04:48.869Z,1.25
2022-11-21T01:07:15.732Z,1.17
2022-11-21T01:09:42.697Z,1.08
2022-11-21T01:12:09.540Z,1.02
2022-11-21T01:14:36.557Z,1.40
2022-11-21T01:17:03.541Z,1.17
2022-11-21T01:19:30.360Z,0.95
2022-11-21T01:21:57.153Z,1.00
2022-11-21T01:24:24.201Z,0.93
2022-11-21T01:26:51.266Z,1.02
2022-11-21T01:29:18.092Z,0.73
2022-11-21T01:31:44.931Z,0.82
2022-11-21T01:34:11.804Z,1.13
2022-11-21T01:36:38.621Z,1.00
2022-11-21T01:39:07.210Z,0.73
2022-11-21T01:41:45.597Z,1.20
2022-11-21T01:44:22.482Z,0.95
2022-11-21T01:46:50.660Z,1.48
2022-11-21T01:49:22.002Z,1.55
2022-11-21T01:52:08.716Z,1.13
2022-11-21T01:54:47.622Z,1.20
2022-11-21T01:57:34.670Z,1.30
2022-11-21T02:00:15.497Z,1.50
2022-11-21T02:02:51.204Z,1.35
2022-11-21T02:05:22.098Z,1.50
2022-11-21T02:07:51.649Z,2.22
2022-11-21T02:10:19.085Z,1.52
2022-11-21T02:12:54.261Z,1.50
2022-11-21T02:15:23.758Z,1.10
2022-11-21T02:17:50.866Z,1.60
2022-11-21T02:20:25.635Z,1.58
2022-11-21T02:23:16.514Z,1.75
2022-11-21T02:25:43.698Z,1.45
2022-11-21T02:28:16.449Z,2.22
2022-11-21T02:30:44.039Z,1.95
2022-11-21T02:33:12.144Z,1.50
2022-11-21T02:35:39.991Z,1.83
2022-11-21T02:38:39.282Z,1.75
2022-11-21T02:41:27.853Z,2.00
2022-11-21T02:44:04.593Z,1.85
2022-11-21T02:46:33.696Z,1.50
2022-11-21T02:49:04.560Z,1.65
2022-11-21T02:51:31.327Z,1.60
2022-11-21T02:53:58.088Z,1.40
2022-11-21T02:56:24.912Z,1.38
2022-11-21T02:58:51.961Z,1.30
2022-11-21T03:01:19.145Z,1.40
2022-11-21T03:03:45.965Z,1.63
2022-11-21T03:06:12.739Z,1.80
2022-11-21T03:08:39.493Z,1.77
2022-11-21T03:11:06.296Z,1.48
2022-11-21T03:13:33.082Z,1.70
2022-11-21T03:15:59.844Z,1.90
2022-11-21T03:18:26.585Z,2.25
2022-11-21T03:20:53.333Z,1.98
2022-11-21T03:23:20.096Z,1.80
2022-11-21T03:25:46.878Z,1.80
2022-11-21T03:28:13.625Z,2.15
2022-11-21T03:30:40.396Z,1.88
2022-11-21T03:33:07.303Z,1.60
2022-11-21T03:35:34.093Z,2.17
2022-11-21T03:38:00.959Z,1.73
2022-11-21T03:40:27.761Z,1.80
2022-11-21T03:42:54.520Z,2.10
2022-11-21T03:45:21.287Z,1.83
2022-11-21T03:47:48.042Z,1.85
2022-11-21T03:50:18.570Z,1.75
2022-11-21T03:52:45.373Z,1.90
2022-11-21T03:55:12.175Z,2.17
2022-11-21T03:57:39.572Z,1.88
2022-11-21T04:00:06.984Z,2.05
2022-11-21T04:02:33.775Z,1.40
2022-11-21T04:05:00.612Z,1.88
2022-11-21T04:07:27.433Z,1.80
2022-11-21T04:09:54.304Z,1.55
2022-11-21T04:12:21.076Z,1.80
2022-11-21T04:14:47.895Z,1.27
2022-11-21T04:17:14.670Z,1.00
2022-11-21T04:19:41.450Z,0.90
2022-11-21T04:22:08.181Z,0.70
2022-11-21T04:24:34.977Z,0.90
2022-11-21T04:27:01.801Z,1.00
2022-11-21T04:29:28.577Z,0.70
2022-11-21T04:31:55.328Z,0.50
2022-11-21T04:34:22.281Z,0.75
2022-11-21T04:36:49.153Z,0.77
2022-11-21T04:39:15.967Z,1.17
2022-11-21T04:41:42.865Z,0.88
2022-11-21T04:44:09.628Z,0.70
2022-11-21T04:46:36.429Z,0.70
2022-11-21T04:49:03.414Z,0.60
2022-11-21T04:51:30.227Z,0.77
2022-11-21T04:53:57.004Z,1.00
2022-11-21T04:56:23.807Z,1.00
2022-11-21T04:58:53.317Z,1.00
2022-11-21T05:01:20.231Z,1.40
2022-11-21T05:03:47.082Z,1.10
2022-11-21T05:06:13.887Z,1.42
2022-11-21T05:08:40.634Z,1.50
2022-11-21T05:11:26.065Z,1.30
2022-11-21T05:13:54.677Z,1.33
2022-11-21T05:16:21.504Z,1.40
2022-11-21T05:18:48.265Z,1.60
2022-11-21T05:21:15.111Z,1.83
2022-11-21T05:23:41.863Z,1.38
2022-11-21T05:26:08.644Z,1.60
2022-11-21T05:28:35.403Z,2.25
2022-11-21T05:31:02.185Z,1.90
2022-11-21T05:33:28.933Z,1.75
2022-11-21T05:35:55.695Z,1.90
2022-11-21T05:38:22.468Z,2.13
2022-11-21T05:40:49.259Z,2.15
2022-11-21T05:43:34.599Z,1.63
2022-11-21T05:46:01.369Z,1.77
2022-11-21T05:48:28.169Z,1.65
2022-11-21T05:50:55.124Z,2.05
2022-11-21T05:53:21.914Z,2.30
2022-11-21T05:55:48.704Z,1.77
2022-11-21T05:58:15.520Z,2.42
2022-11-21T06:00:42.425Z,2.20
2022-11-21T06:03:30.679Z,2.28
2022-11-21T06:06:05.574Z,2.92
2022-11-21T06:08:37.538Z,2.80
2022-11-21T06:11:05.732Z,2.42
2022-11-21T06:13:33.811Z,2.30
2022-11-21T06:16:09.462Z,2.70
2022-11-21T06:18:38.986Z,2.45
2022-11-21T06:21:08.780Z,1.80
2022-11-21T06:23:36.343Z,2.33
2022-11-21T06:26:05.490Z,2.00
2022-11-21T06:28:34.768Z,1.50
2022-11-21T06:31:10.703Z,1.40
2022-11-21T06:33:38.299Z,2.15
2022-11-21T06:36:08.387Z,2.47
2022-11-21T06:38:35.431Z,1.83
2022-11-21T06:41:13.314Z,1.50
2022-11-21T06:43:41.004Z,1.83
2022-11-21T06:46:08.347Z,1.90
2022-11-21T06:48:36.494Z,2.42
2022-11-21T06:51:13.229Z,2.13
2022-11-21T06:53:39.983Z,2.25
2022-11-21T06:56:06.804Z,2.05
2022-11-21T06:58:33.590Z,2.20
2022-11-21T07:01:05.613Z,1.85
2022-11-21T07:03:32.753Z,2.00
2022-11-21T07:06:01.747Z,2.38
2022-11-21T07:08:29.558Z,2.00
2022-11-21T07:11:23.588Z,2.15
2022-11-21T07:13:43.902Z,1.58
2022-11-21T07:16:15.587Z,2.05
2022-11-21T07:18:43.144Z,2.05
2022-11-21T07:21:10.431Z,1.60
2022-11-21T07:23:37.532Z,1.65
2022-11-21T07:26:06.451Z,2.03
2022-11-21T07:28:34.164Z,1.27
2022-11-21T07:31:07.010Z,1.88
2022-11-21T07:33:39.686Z,2.00
2022-11-21T07:36:07.226Z,1.80
2022-11-21T07:38:34.105Z,1.80
2022-11-21T07:41:00.897Z,1.75
2022-11-21T07:43:27.622Z,1.90
2022-11-21T07:45:54.477Z,2.20
2022-11-21T07:48:21.415Z,2.30
2022-11-21T07:50:48.382Z,2.63
2022-11-21T07:53:15.166Z,1.88
2022-11-21T07:55:42.531Z,1.90
2022-11-21T07:58:11.804Z,1.60
2022-11-21T08:00:40.215Z,1.50
2022-11-21T08:03:07.211Z,1.40
2022-11-21T08:05:38.147Z,1.70
2022-11-21T08:08:06.513Z,1.38
2022-11-21T08:10:34.108Z,1.30
2022-11-21T08:13:01.003Z,1.75
2022-11-21T08:15:27.765Z,1.80
2022-11-21T08:17:54.602Z,1.10
2022-11-21T08:20:21.508Z,1.30
2022-11-21T08:22:48.596Z,2.00
2022-11-21T08:25:15.582Z,1.13
2022-11-21T08:27:42.411Z,1.40
2022-11-21T08:30:11.387Z,1.65
2022-11-21T08:32:38.448Z,1.35
2022-11-21T08:35:05.744Z,1.67
2022-11-21T08:37:32.565Z,1.10
2022-11-21T08:40:00.650Z,1.30
2022-11-21T08:42:27.781Z,1.00
2022-11-21T08:44:54.630Z,1.75
2022-11-21T08:47:21.400Z,1.50
2022-11-21T08:49:48.558Z,1.42
2022-11-21T08:52:17.247Z,2.30
2022-11-21T08:54:45.459Z,2.25
2022-11-21T08:57:12.555Z,1.70
2022-11-21T08:59:39.797Z,1.70
2022-11-21T09:02:06.972Z,1.80
2022-11-21T09:04:33.982Z,1.83
2022-11-21T09:07:01.960Z,1.45
2022-11-21T09:09:28.850Z,1.40
2022-11-21T09:11:55.604Z,1.50
2022-11-21T09:14:41.403Z,1.02
2022-11-21T09:17:34.806Z,1.92
2022-11-21T09:20:22.846Z,1.73
2022-11-21T09:22:56.579Z,1.92
2022-11-21T09:25:38.029Z,1.25
2022-11-21T09:28:14.281Z,1.20
2022-11-21T09:30:49.086Z,1.52
2022-11-21T09:33:22.130Z,1.30
2022-11-21T09:36:02.214Z,1.30
2022-11-21T09:38:43.414Z,1.02
2022-11-21T09:41:58.226Z,1.40
2022-11-21T09:45:14.627Z,1.33
2022-11-21T09:48:00.068Z,1.48
2022-11-21T09:50:37.612Z,1.55
2022-11-21T09:53:12.809Z,1.40
2022-11-21T09:55:44.996Z,1.40
2022-11-21T09:58:24.200Z,1.75
2022-11-21T10:00:52.265Z,1.33
2022-11-21T10:03:22.709Z,1.40
2022-11-21T10:05:58.174Z,1.10
2022-11-21T10:09:12.759Z,1.33
2022-11-21T10:12:07.387Z,1.30
2022-11-21T10:14:52.832Z,1.27
2022-11-21T10:17:50.875Z,1.20
2022-11-21T10:20:27.640Z,1.20
2022-11-21T10:23:04.227Z,1.77
2022-11-21T10:25:40.736Z,1.45
2022-11-21T10:28:16.355Z,1.45
2022-11-21T10:30:45.412Z,1.50
2022-11-21T10:33:18.189Z,1.58
2022-11-21T10:35:49.104Z,1.58
2022-11-21T10:38:29.062Z,1.45
2022-11-21T10:41:11.483Z,2.17
2022-11-21T10:44:28.158Z,1.80
2022-11-21T10:46:59.895Z,2.17
2022-11-21T10:49:30.091Z,2.28
2022-11-21T10:52:07.512Z,1.85
2022-11-21T10:55:03.448Z,1.48
2022-11-21T10:57:41.035Z,1.65
2022-11-21T11:00:20.231Z,1.50
2022-11-21T11:03:07.522Z,1.65
2022-11-21T11:05:38.599Z,1.70
2022-11-21T11:08:08.574Z,1.50
2022-11-21T11:11:01.607Z,1.25
2022-11-21T11:13:51.966Z,1.08
2022-11-21T11:16:24.046Z,1.60
2022-11-21T11:19:11.214Z,1.30
2022-11-21T11:21:40.960Z,1.95
2022-11-21T11:24:10.924Z,1.10
2022-11-21T11:26:48.565Z,1.90
2022-11-21T11:29:27.582Z,2.15
2022-11-21T11:32:21.320Z,2.00
2022-11-21T11:35:00.388Z,1.70
2022-11-21T11:37:42.552Z,1.30
2022-11-21T11:40:22.288Z,1.70
2022-11-21T11:43:56.095Z,1.45
2022-11-21T11:47:09.630Z,2.88
2022-11-21T11:49:57.566Z,1.83
2022-11-21T11:52:29.610Z,1.17
2022-11-21T11:55:07.072Z,2.97
2022-11-21T11:57:37.025Z,1.45
2022-11-21T12:00:07.719Z,1.70
2022-11-21T12:03:04.440Z,1.52
2022-11-21T12:05:32.307Z,2.08
2022-11-21T12:11:22.378Z,1.42
2022-11-21T12:13:55.553Z,1.25
2022-11-21T12:16:26.835Z,1.38
2022-11-21T12:19:02.925Z,1.00
2022-11-21T12:21:29.853Z,1.48
2022-11-21T12:24:03.062Z,1.48
2022-11-21T12:26:39.142Z,1.27
2022-11-21T12:29:30.536Z,1.48
2022-11-21T12:32:19.369Z,1.40
2022-11-21T12:35:04.696Z,1.45
2022-11-21T12:37:51.350Z,1.33
2022-11-21T12:40:21.185Z,1.38
2022-11-21T12:43:08.362Z,1.02
2022-11-21T12:45:38.533Z,1.98
2022-11-21T12:48:35.364Z,1.45
2022-11-21T12:51:23.916Z,1.80
2022-11-21T12:54:33.430Z,1.40
2022-11-21T12:57:16.517Z,1.00
2022-11-21T13:00:05.321Z,1.58
2022-11-21T13:02:59.794Z,1.65
2022-11-21T13:05:48.037Z,1.58
2022-11-21T13:08:24.097Z,1.30
2022-11-21T13:11:30.572Z,1.15
2022-11-21T13:14:18.988Z,1.30
2022-11-21T13:17:12.649Z,1.30
2022-11-21T13:20:09.840Z,1.45
2022-11-21T13:22:36.735Z,1.95
2022-11-21T13:25:31.133Z,1.83
2022-11-21T13:28:13.913Z,1.25
2022-11-21T13:30:47.989Z,1.40
2022-11-21T13:33:36.360Z,1.83
2022-11-21T13:36:28.126Z,1.63
2022-11-21T13:38:55.752Z,1.65
2022-11-21T13:41:53.383Z,1.10
2022-11-21T13:44:46.983Z,1.30
2022-11-21T13:47:26.150Z,1.88
2022-11-21T13:49:52.953Z,1.52
2022-11-21T13:52:19.798Z,1.48
2022-11-21T13:55:05.296Z,1.30
2022-11-21T13:57:49.796Z,1.67
2022-11-21T14:00:26.214Z,2.67
2022-11-21T14:02:53.214Z,1.58
2022-11-21T14:05:57.645Z,1.50
2022-11-21T14:08:27.334Z,1.60
2022-11-21T14:10:56.324Z,1.88
2022-11-21T14:13:28.148Z,1.80
2022-11-21T14:16:16.910Z,1.05
2022-11-21T14:18:47.196Z,1.10
2022-11-21T14:21:21.502Z,1.30
2022-11-21T14:23:48.863Z,1.40
2022-11-21T14:26:20.096Z,1.77
2022-11-21T14:28:47.903Z,3.05
2022-11-21T14:31:15.089Z,1.45
2022-11-21T14:33:47.311Z,1.67
2022-11-21T14:36:19.292Z,2.08
2022-11-21T14:39:28.982Z,1.33
2022-11-21T14:41:51.404Z,1.98
2022-11-21T14:44:20.384Z,2.03
2022-11-21T14:46:48.195Z,2.65
2022-11-21T14:49:23.289Z,1.70
2022-11-21T14:52:16.322Z,1.90
2022-11-21T14:55:28.000Z,2.25
2022-11-21T14:57:43.199Z,2.15
2022-11-21T15:03:21.091Z,2.72
2022-11-21T15:06:07.968Z,2.50
2022-11-21T15:11:37.266Z,2.63
2022-11-21T15:14:30.826Z,2.72
2022-11-21T15:16:59.866Z,3.28
2022-11-21T15:19:28.892Z,4.90
2022-11-21T15:21:58.376Z,7.00
2022-11-21T15:24:43.353Z,4.72
2022-11-21T15:27:31.662Z,4.07
2022-11-21T15:30:05.575Z,3.47
2022-11-21T15:32:32.345Z,3.78
2022-11-21T15:34:59.134Z,3.67
2022-11-21T15:37:27.775Z,5.15
2022-11-21T15:39:54.806Z,4.97
2022-11-21T15:42:31.084Z,5.13
2022-11-21T15:45:21.379Z,4.78
2022-11-21T15:47:49.324Z,4.28
2022-11-21T15:50:16.802Z,3.70
2022-11-21T15:52:48.876Z,3.88
2022-11-21T15:55:24.705Z,4.68
2022-11-21T15:57:51.482Z,5.63
2022-11-21T16:00:18.768Z,4.63
2022-11-21T16:02:45.630Z,8.10
2022-11-21T16:05:14.024Z,9.32
2022-11-21T16:07:41.853Z,4.90
2022-11-21T16:10:17.256Z,4.70
2022-11-21T16:12:48.651Z,3.75
2022-11-21T16:15:15.587Z,4.90
2022-11-21T16:17:42.471Z,4.80
2022-11-21T16:20:09.804Z,6.35
2022-11-21T16:22:36.641Z,7.93
2022-11-21T16:25:03.697Z,5.60
2022-11-21T16:27:32.240Z,3.72
2022-11-21T16:29:59.151Z,3.40
2022-11-21T16:32:26.533Z,6.00
2022-11-21T16:34:54.665Z,6.55
2022-11-21T16:37:22.383Z,7.05
2022-11-21T16:39:52.097Z,8.38
2022-11-21T16:42:20.181Z,17.00
2022-11-21T16:44:48.132Z,7.03
2022-11-21T16:47:15.225Z,4.68
2022-11-21T16:49:48.374Z,4.97
2022-11-21T16:52:15.992Z,4.50
2022-11-21T16:54:42.801Z,3.88
2022-11-21T16:57:09.831Z,4.30
2022-11-21T16:59:36.930Z,3.78
2022-11-21T17:02:04.199Z,4.85
2022-11-21T17:04:31.295Z,3.83
2022-11-21T17:06:58.544Z,3.53
2022-11-21T17:09:25.435Z,3.70
2022-11-21T17:11:52.315Z,3.35
2022-11-21T17:14:19.113Z,3.33
2022-11-21T17:16:45.970Z,3.33
2022-11-21T17:19:13.428Z,3.42
2022-11-21T17:21:40.274Z,2.90
2022-11-21T17:24:07.420Z,3.30
2022-11-21T17:26:37.797Z,3.10
2022-11-21T17:29:05.077Z,6.32
2022-11-21T17:31:32.487Z,6.85
2022-11-21T17:34:00.869Z,5.50
2022-11-21T17:36:29.372Z,4.63
2022-11-21T17:38:56.340Z,4.78
2022-11-21T17:41:25.268Z,7.45
2022-11-21T17:43:56.993Z,6.95
2022-11-21T17:46:25.472Z,7.10
2022-11-21T17:48:57.075Z,7.10
2022-11-21T17:51:28.838Z,25.05
2022-11-21T17:53:56.378Z,11.50
2022-11-21T17:56:25.683Z,7.88
2022-11-21T17:58:52.801Z,7.10
2022-11-21T18:01:20.808Z,5.18
2022-11-21T18:03:53.095Z,4.88
2022-11-21T18:06:20.056Z,4.68
2022-11-21T18:08:48.599Z,3.38
2022-11-21T18:11:19.247Z,2.88
2022-11-21T18:13:48.121Z,3.35
2022-11-21T18:16:21.834Z,4.20
2022-11-21T18:18:49.821Z,4.40
2022-11-21T18:21:22.456Z,6.35
2022-11-21T18:23:50.467Z,5.30
2022-11-21T18:26:20.561Z,4.95
2022-11-21T18:29:07.141Z,5.75
2022-11-21T18:31:40.184Z,5.63
2022-11-21T18:34:07.088Z,7.07
2022-11-21T18:36:34.139Z,5.40
2022-11-21T18:39:07.345Z,5.47
2022-11-21T18:41:37.752Z,5.90
2022-11-21T18:44:06.562Z,4.15
2022-11-21T18:46:36.116Z,7.55
2022-11-21T18:49:06.443Z,10.38
2022-11-21T18:51:35.856Z,6.95
2022-11-21T18:54:08.359Z,6.75
2022-11-21T18:56:39.232Z,8.02
2022-11-21T18:59:06.858Z,9.13
2022-11-21T19:01:35.800Z,6.35
2022-11-21T19:04:03.023Z,6.45
2022-11-21T19:06:29.912Z,6.68
2022-11-21T19:08:58.070Z,6.88
2022-11-21T19:11:28.088Z,6.75
2022-11-21T19:13:56.835Z,7.35
2022-11-21T19:16:25.739Z,7.05
2022-11-21T19:21:41.797Z,7.10
2022-11-21T19:24:13.353Z,3.88
2022-11-21T19:26:40.708Z,3.60
2022-11-21T19:29:07.596Z,4.63
2022-11-21T19:31:39.100Z,4.45
2022-11-21T19:34:09.676Z,4.43
2022-11-21T19:36:36.632Z,4.00
2022-11-21T19:39:03.471Z,4.82
2022-11-21T19:41:30.762Z,3.45
2022-11-21T19:44:01.604Z,4.95
2022-11-21T19:46:31.423Z,3.80
2022-11-21T19:48:59.228Z,4.25
2022-11-21T19:51:32.427Z,3.28
2022-11-21T19:54:01.249Z,3.03
2022-11-21T19:56:28.021Z,2.72
2022-11-21T19:58:56.900Z,3.33
2022-11-21T20:01:25.968Z,4.10
2022-11-21T20:03:58.765Z,3.63
2022-11-21T20:06:30.754Z,3.33
2022-11-21T20:09:00.026Z,3.95
2022-11-21T20:11:29.038Z,3.67
2022-11-21T20:13:56.126Z,3.30
2022-11-21T20:16:41.282Z,3.67
2022-11-21T20:19:11.307Z,3.95
2022-11-21T20:21:39.153Z,3.97
2022-11-21T20:24:06.812Z,3.83
2022-11-21T20:26:34.643Z,4.53
2022-11-21T20:29:01.936Z,4.35
2022-11-21T20:31:31.019Z,4.25
2022-11-21T20:34:04.427Z,4.18
2022-11-21T20:36:32.918Z,4.40
2022-11-21T20:39:08.781Z,4.28
2022-11-21T20:41:36.695Z,4.60
2022-11-21T20:46:55.502Z,4.47
2022-11-21T20:49:22.504Z,5.28
2022-11-21T20:53:20.589Z,4.75
2022-11-21T20:54:37.947Z,5.13
2022-11-21T20:57:04.754Z,5.22
2022-11-21T20:59:31.841Z,5.38
2022-11-21T21:01:59.049Z,4.63
2022-11-21T21:04:25.920Z,4.72
2022-11-21T21:06:52.841Z,4.93
2022-11-21T21:09:19.695Z,5.55
2022-11-21T21:11:53.817Z,4.55
2022-11-21T21:14:23.640Z,4.78
2022-11-21T21:16:50.652Z,4.70
2022-11-21T21:19:18.026Z,5.13
2022-11-21T21:21:45.071Z,4.97
2022-11-21T21:24:12.769Z,4.60
2022-11-21T21:26:43.660Z,3.90
2022-11-21T21:29:13.328Z,4.63
2022-11-21T21:31:44.083Z,4.50
2022-11-21T21:34:12.228Z,4.47
2022-11-21T21:36:39.074Z,4.65
2022-11-21T21:39:06.565Z,4.93
2022-11-21T21:41:33.340Z,5.18
2022-11-21T21:44:00.328Z,4.65
2022-11-21T21:46:28.065Z,5.55
2022-11-21T21:48:57.006Z,5.63
2022-11-21T21:51:26.248Z,5.10
2022-11-21T21:53:54.603Z,4.90
2022-11-21T21:56:22.940Z,5.47
2022-11-21T21:58:51.063Z,5.63
2022-11-21T22:01:21.091Z,5.43
2022-11-21T22:03:48.993Z,6.00
2022-11-21T22:06:17.791Z,5.80
2022-11-21T22:08:46.351Z,5.60
2022-11-21T22:11:17.198Z,5.68
2022-11-21T22:13:45.643Z,5.95
2022-11-21T22:16:13.854Z,5.88
2022-11-21T22:18:41.814Z,6.55
2022-11-21T22:21:20.024Z,6.35
2022-11-21T22:24:09.733Z,6.97
2022-11-21T22:26:34.136Z,7.35
2022-11-21T22:29:00.977Z,6.65
2022-11-21T22:31:31.323Z,6.50
2022-11-21T22:33:58.227Z,7.93
2022-11-21T22:36:25.305Z,7.25
2022-11-21T22:38:56.266Z,6.50
2022-11-21T22:41:25.785Z,6.55
2022-11-21T22:43:59.561Z,6.80
2022-11-21T22:46:28.141Z,6.40
2022-11-21T22:48:55.147Z,6.85
2022-11-21T22:51:25.221Z,7.65
2022-11-21T22:53:52.431Z,7.45
2022-11-21T22:56:21.914Z,7.30
2022-11-21T22:58:49.603Z,7.57
2022-11-21T23:01:21.273Z,7.60
2022-11-21T23:03:49.295Z,7.95
2022-11-21T23:06:18.815Z,8.07
2022-11-21T23:08:46.591Z,7.88
2022-11-21T23:11:22.862Z,8.02
2022-11-21T23:13:51.105Z,8.55
2022-11-21T23:16:18.525Z,8.68
2022-11-21T23:18:45.486Z,9.15
2022-11-21T23:21:13.259Z,8.75
2022-11-21T23:23:40.353Z,8.38
2022-11-21T23:26:07.847Z,8.77
2022-11-21T23:28:34.781Z,8.75
2022-11-21T23:31:01.824Z,8.82
2022-11-21T23:33:28.877Z,8.75
2022-11-21T23:35:55.926Z,8.60
2022-11-21T23:38:22.818Z,8.63
2022-11-21T23:40:49.957Z,8.55
2022-11-21T23:43:17.771Z,9.45
2022-11-21T23:45:49.113Z,8.75
2022-11-21T23:48:16.507Z,8.60
2022-11-21T23:50:43.263Z,8.60
2022-11-21T23:53:10.020Z,8.40
2022-11-21T23:55:36.800Z,8.88
2022-11-21T23:58:03.625Z,9.50
